KMWO

Middletown Regional / Hook Field Airport

Middletown, Ohio, USA
METAR KMWO 201255Z AUTO 21005KT 10SM CLR M02/M05 A3007 RMK AO2 PWINO T10161055
Observed Flight Rules
Jan-20 @ 12:55 UTC (19 minutes ago) Visual Flight Rules
Wind Visibility Clouds
210° at 5 knots 10 miles
  • Clear skies
Temperatures Readings
Current -2°C / 28°F
Dewpoint -6°C / 21°F
Humidity 74%
Altimeter 30.07" Hg
Pressure 1018 hPa
Elevation 198
METAR KMWO 201255Z AUTO 21005KT 10SM CLR M02/M05 A3007 RMK AO2 PWINO T10161055
Observed Flight Rules
Jan-20 @ 12:55 UTC
(19 minutes ago)
VFR
Wind Visibility
210° at 5 knots 10 miles
Clouds
  • Clear skies
Temperature Dewpoint
-2°C / 28°F -6°C / 21°F
Humidity Altimeter Pressure
74% 30.07" Hg 1018 hPa